Aérodrome :
LOGIN :

S'inscrire | Disclaimer

   EN    FR    IT 

 










Légende :    VFR   VFR Marginal   IFR   IFR Intensif   IFR Très Intensif
Visi : 
Plafond : 
>= 8 km
>= 3000ft
5 à 8 km
1000 à 3000 ft
1500m à 5 km
500 à 1000 ft
800 à 1500m
200 à 500 ft
< 800m
< 200 ft
Symboles :   Orages  Brouillard  Fortes neiges  Fortes précipitations  Vent > 20 kt
SIGMETs :   Divers  Orages  Givrage  Turbulence  Onde Orograph.  Cendres Volcan.






- Altitude de l'aérodrome : 306 ft
- Code IATA : EMA


EGNX - Nottingham East Midlands

DERNIER METAR :
  • 010950Z 05008KT 0250 R27/0900 FG OVC001 02/02 Q1034

METARs EXPIRÉS :
  • 010920Z 07008KT 0200 R27/P1500 FG OVC001 02/02 Q1034
  • 010850Z 08007KT 0150 R27/0700 FG OVC001 02/02 Q1034
  • 010820Z 07009KT 0200 R27/0800 FG OVC001 02/02 Q1034
  • 010750Z 06008KT 0250 R27/0750 FG OVC001 02/02 Q1033
  • 010720Z 06008KT 0150 R27/0400 FG OVC001 02/02 Q1033

TAF AMD TAF EGNX
Valide du 01 à 10h jusqu'au 02 à 06h UTC


011001Z 0110/0206 08005KT 0300 FG BKN001
BECMG 0110/0113 3000 BR BKN003
BECMG 0113/0115 9999 NSW BKN008
PROB40
TEMPO 0113/0120 SCT008 BKN016
PROB30
TEMPO 0115/0203 8000
BECMG 0203/0206 3000 BR BKN003
PROB30 0205/0206 0300 FG BKN001
ATIS : +44 1332 852 852 (ext 3201)



MET'MAP, la Météo Aéronautique d'un coup d'oeil ! - Copyright ORBIFLY Décembre 2007 - Disclaimer

ORBIFLY MET'MAP TEAM :

Programmation & Développement : Alexandra Zaïnal
Sur une idée originale de : Baudouin d'Aumeries
Assistance à la programmation : Marc-Olivier Méhu
Soutien technique & logistique : Manuel Goepfert

Contact : metmap@orbifly.com




SOURCES & CREDITS :

   NOAA